Time;durP1;ratioP1;P1;durP2;ratioP2;P2;SDS_P1;SDS_P2;PMS_P1;PMS_P2;Temp;Humidity;BMP_temperature;BMP_pressure;BME280_temperature;BME280_humidity;BME280_pressure;Samples;Min_cycle;Max_cycle;Signal;HPM_P1;HPM_P2
2023/10/12 00:00:54;;;;;;;;;;;18.90;94.90;;;;;;4199348;28;20057;-49
2023/10/12 00:03:36;;;;;;;;;;;18.90;94.90;;;;;;4191594;28;20390;-49
2023/10/12 00:06:18;;;;;;;;;;;19.00;95.00;;;;;;4204887;28;19986;-48
2023/10/12 00:09:09;;;;;;;;;;;18.90;95.00;;;;;;4204152;28;20086;-51
2023/10/12 00:11:56;;;;;;;;;;;19.00;95.00;;;;;;4187267;28;19986;-51
2023/10/12 00:14:37;;;;;;;;;;;19.00;95.00;;;;;;4188028;28;20397;-50
2023/10/12 00:17:17;;;;;;;;;;;18.90;95.00;;;;;;4187662;28;20009;-47
2023/10/12 00:19:59;;;;;;;;;;;19.00;95.00;;;;;;4180798;28;20012;-47
2023/10/12 00:22:40;;;;;;;;;;;18.90;95.00;;;;;;4204190;28;19931;-61
2023/10/12 00:25:23;;;;;;;;;;;18.90;95.00;;;;;;4204011;28;19975;-62
2023/10/12 00:28:06;;;;;;;;;;;18.90;95.40;;;;;;4203726;28;20283;-61
2023/10/12 00:30:47;;;;;;;;;;;18.90;95.00;;;;;;4191507;28;20287;-62
2023/10/12 00:33:29;;;;;;;;;;;18.90;95.10;;;;;;4204206;28;19935;-62
2023/10/12 00:36:19;;;;;;;;;;;18.90;95.00;;;;;;4204763;28;20020;-47
2023/10/12 00:39:01;;;;;;;;;;;18.90;95.00;;;;;;4203870;28;20409;-60
2023/10/12 00:41:44;;;;;;;;;;;18.90;95.40;;;;;;4191585;28;19935;-61
2023/10/12 00:44:29;;;;;;;;;;;18.90;95.10;;;;;;4204123;28;20012;-62
2023/10/12 00:47:12;;;;;;;;;;;18.90;95.10;;;;;;4191711;28;19962;-61
2023/10/12 00:49:55;;;;;;;;;;;18.90;95.10;;;;;;4175035;28;19977;-61
2023/10/12 00:52:46;;;;;;;;;;;18.90;95.10;;;;;;4187535;28;19936;-61
2023/10/12 00:55:36;;;;;;;;;;;18.90;95.10;;;;;;4175124;28;19955;-61
2023/10/12 00:58:17;;;;;;;;;;;18.90;95.10;;;;;;4192467;28;19935;-62
2023/10/12 01:01:02;;;;;;;;;;;18.90;95.10;;;;;;4191503;28;19943;-47
2023/10/12 01:03:45;;;;;;;;;;;18.90;95.10;;;;;;4204173;28;20062;-48
2023/10/12 01:06:29;;;;;;;;;;;18.90;95.10;;;;;;4203752;28;19997;-47
2023/10/12 01:09:19;;;;;;;;;;;18.90;95.10;;;;;;4203450;28;20295;-48
2023/10/12 01:12:00;;;;;;;;;;;18.90;95.10;;;;;;4203960;28;19931;-49
2023/10/12 01:14:44;;;;;;;;;;;18.80;95.10;;;;;;4203522;28;19931;-48
2023/10/12 01:17:29;;;;;;;;;;;18.90;95.10;;;;;;4203801;28;19930;-49
2023/10/12 01:20:16;;;;;;;;;;;18.90;95.10;;;;;;4203614;28;19932;-49
2023/10/12 01:22:59;;;;;;;;;;;18.90;95.10;;;;;;4187380;28;19931;-48
2023/10/12 01:25:42;;;;;;;;;;;18.80;95.10;;;;;;4187086;28;19931;-47
2023/10/12 01:28:23;;;;;;;;;;;18.80;95.10;;;;;;4179632;28;19969;-47
2023/10/12 01:31:05;;;;;;;;;;;18.80;95.50;;;;;;4203401;28;20419;-48
2023/10/12 01:33:50;;;;;;;;;;;18.80;95.10;;;;;;4203348;28;19930;-48
2023/10/12 01:36:32;;;;;;;;;;;18.80;95.10;;;;;;4203273;28;19931;-48
2023/10/12 01:39:15;;;;;;;;;;;18.90;95.10;;;;;;4191034;28;19946;-47
2023/10/12 01:41:56;;;;;;;;;;;18.80;95.10;;;;;;4190433;28;19984;-48
2023/10/12 01:44:38;;;;;;;;;;;18.80;95.10;;;;;;4190955;28;20094;-47
2023/10/12 01:47:19;;;;;;;;;;;18.80;95.10;;;;;;4191032;28;20382;-46
2023/10/12 01:50:00;;;;;;;;;;;18.80;95.10;;;;;;4203311;28;20439;-47
2023/10/12 01:52:44;;;;;;;;;;;18.80;95.10;;;;;;4203321;28;19934;-47
2023/10/12 01:55:29;;;;;;;;;;;18.80;95.00;;;;;;4202528;28;19935;-50
2023/10/12 01:58:12;;;;;;;;;;;18.80;95.00;;;;;;4186629;28;19981;-47
2023/10/12 02:00:52;;;;;;;;;;;18.80;95.00;;;;;;4174489;28;19931;-50
2023/10/12 02:03:37;;;;;;;;;;;18.80;95.00;;;;;;4175495;28;19995;-51
2023/10/12 02:06:19;;;;;;;;;;;18.80;95.40;;;;;;4195763;28;20088;-50
2023/10/12 02:09:08;;;;;;;;;;;18.80;95.00;;;;;;4205845;28;20078;-48
2023/10/12 02:11:54;;;;;;;;;;;18.80;95.00;;;;;;4205803;28;19934;-48
2023/10/12 02:14:39;;;;;;;;;;;18.80;95.00;;;;;;4203168;28;19977;-48
2023/10/12 02:17:25;;;;;;;;;;;18.80;95.00;;;;;;4193276;28;20409;-47
2023/10/12 02:20:11;;;;;;;;;;;18.80;95.00;;;;;;4206174;28;19935;-48
2023/10/12 02:22:52;;;;;;;;;;;18.80;95.00;;;;;;4206101;28;19980;-46
2023/10/12 02:25:44;;;;;;;;;;;18.80;95.00;;;;;;4192457;28;20283;-48
2023/10/12 02:28:37;;;;;;;;;;;18.80;95.00;;;;;;4188352;28;20010;-49
2023/10/12 02:31:19;;;;;;;;;;;18.80;95.00;;;;;;4180415;28;20029;-52
2023/10/12 02:34:02;;;;;;;;;;;18.80;95.00;;;;;;4205547;28;20302;-51
2023/10/12 02:36:56;;;;;;;;;;;18.70;95.40;;;;;;4205691;28;19972;-49
2023/10/12 02:39:42;;;;;;;;;;;18.70;95.00;;;;;;4191983;28;19935;-49
2023/10/12 02:42:38;;;;;;;;;;;18.70;94.90;;;;;;4205970;28;20022;-49
2023/10/12 02:45:23;;;;;;;;;;;18.70;94.90;;;;;;4204500;28;20072;-50
2023/10/12 02:48:06;;;;;;;;;;;18.70;94.90;;;;;;4206163;28;19931;-48
2023/10/12 02:50:57;;;;;;;;;;;18.70;95.40;;;;;;4198171;28;19935;-50
2023/10/12 02:53:39;;;;;;;;;;;18.70;95.10;;;;;;4219419;28;19955;-49
2023/10/12 02:56:24;;;;;;;;;;;18.70;95.10;;;;;;4205064;28;19931;-48
2023/10/12 02:59:08;;;;;;;;;;;18.70;95.10;;;;;;4205043;28;19930;-48
2023/10/12 03:02:08;;;;;;;;;;;18.70;95.10;;;;;;4192379;28;20369;-47
2023/10/12 03:04:55;;;;;;;;;;;18.70;95.10;;;;;;4203823;28;19980;-49
2023/10/12 03:07:39;;;;;;;;;;;18.70;95.10;;;;;;4205270;28;20335;-48
2023/10/12 03:10:26;;;;;;;;;;;18.70;95.50;;;;;;4192060;28;19931;-47
2023/10/12 03:13:17;;;;;;;;;;;18.70;95.10;;;;;;4205524;28;19943;-48
2023/10/12 03:16:03;;;;;;;;;;;18.70;95.10;;;;;;4200908;28;19935;-48
2023/10/12 03:18:45;;;;;;;;;;;18.70;95.10;;;;;;4205312;28;19935;-47
2023/10/12 03:21:28;;;;;;;;;;;18.70;95.00;;;;;;4193454;28;19931;-50
2023/10/12 03:24:10;;;;;;;;;;;18.70;95.40;;;;;;4192499;28;19935;-48
2023/10/12 03:27:05;;;;;;;;;;;18.70;94.90;;;;;;4204611;28;19939;-47
2023/10/12 03:30:06;;;;;;;;;;;18.70;94.90;;;;;;4188391;28;19935;-49
2023/10/12 03:32:49;;;;;;;;;;;18.70;94.90;;;;;;4188141;28;20023;-47
2023/10/12 03:35:37;;;;;;;;;;;18.70;94.90;;;;;;4193736;28;19931;-47
2023/10/12 03:38:19;;;;;;;;;;;18.60;94.90;;;;;;4205064;28;19935;-49
2023/10/12 03:44:04;;;;;;;;;;;18.70;94.90;;;;;;4204254;28;19967;-48
2023/10/12 03:46:46;;;;;;;;;;;18.60;94.80;;;;;;4204957;28;19935;-49
2023/10/12 03:49:32;;;;;;;;;;;18.60;94.80;;;;;;4204168;28;20004;-49
2023/10/12 03:52:15;;;;;;;;;;;18.60;94.80;;;;;;4204940;28;20065;-47
2023/10/12 03:55:09;;;;;;;;;;;18.60;94.80;;;;;;4187942;28;19931;-49
2023/10/12 03:58:00;;;;;;;;;;;18.60;94.80;;;;;;4187031;28;19930;-48
2023/10/12 04:00:48;;;;;;;;;;;18.60;94.80;;;;;;4192159;28;20066;-49
2023/10/12 04:03:36;;;;;;;;;;;18.60;94.80;;;;;;4204108;28;19930;-50
2023/10/12 04:06:23;;;;;;;;;;;18.60;94.80;;;;;;4204289;28;20021;-50
2023/10/12 04:09:14;;;;;;;;;;;18.60;94.80;;;;;;4204394;28;19962;-53
2023/10/12 04:12:04;;;;;;;;;;;18.50;94.80;;;;;;4203971;28;20072;-49
2023/10/12 04:14:48;;;;;;;;;;;18.60;94.80;;;;;;4187974;28;19947;-48
2023/10/12 04:17:42;;;;;;;;;;;18.50;94.80;;;;;;4188475;28;20493;-48
2023/10/12 04:20:23;;;;;;;;;;;18.60;94.80;;;;;;4203389;28;19935;-49
2023/10/12 04:26:37;;;;;;;;;;;18.50;94.80;;;;;;4150746;28;19982;-49
2023/10/12 04:29:21;;;;;;;;;;;18.50;94.80;;;;;;4202060;28;19966;-49
2023/10/12 04:32:15;;;;;;;;;;;18.50;94.80;;;;;;4204023;28;20057;-48
2023/10/12 04:34:55;;;;;;;;;;;18.50;94.80;;;;;;4202824;28;19931;-49
2023/10/12 04:37:38;;;;;;;;;;;18.50;94.80;;;;;;4204137;28;20283;-49
2023/10/12 04:42:50;;;;;;;;;;;18.50;94.70;;;;;;4203496;27;19920;-48
2023/10/12 04:45:55;;;;;;;;;;;18.50;94.80;;;;;;4202214;28;19936;-49
2023/10/12 04:48:31;;;;;;;;;;;18.50;94.70;;;;;;4202058;28;20473;-61
2023/10/12 04:51:18;;;;;;;;;;;18.50;94.80;;;;;;4200618;27;19931;-62
2023/10/12 04:54:06;;;;;;;;;;;18.50;94.70;;;;;;4191278;27;20070;-62
2023/10/12 04:56:56;;;;;;;;;;;18.40;94.70;;;;;;4200691;27;19935;-62
2023/10/12 04:59:43;;;;;;;;;;;18.50;94.70;;;;;;4197620;27;19936;-62
2023/10/12 05:02:41;;;;;;;;;;;18.50;94.70;;;;;;4217620;27;20042;-61
2023/10/12 05:08:21;;;;;;;;;;;18.50;94.70;;;;;;4209831;27;20477;-60
2023/10/12 05:11:02;;;;;;;;;;;18.40;95.10;;;;;;4183182;28;19955;-61
2023/10/12 05:13:44;;;;;;;;;;;18.40;94.70;;;;;;4184633;28;19932;-60
2023/10/12 05:16:30;;;;;;;;;;;18.40;94.70;;;;;;4202304;28;19977;-61
2023/10/12 05:19:11;;;;;;;;;;;18.40;94.70;;;;;;4201136;28;20088;-61
2023/10/12 05:21:54;;;;;;;;;;;18.40;94.70;;;;;;4182338;28;20432;-61
2023/10/12 05:24:35;;;;;;;;;;;18.40;94.70;;;;;;4185767;28;19932;-58
2023/10/12 05:27:23;;;;;;;;;;;18.40;94.70;;;;;;4180286;27;20394;-61
2023/10/12 05:30:05;;;;;;;;;;;18.40;94.70;;;;;;4191534;27;20298;-62
2023/10/12 05:32:56;;;;;;;;;;;18.40;94.70;;;;;;4201951;27;20394;-62
2023/10/12 05:35:52;;;;;;;;;;;18.40;94.80;;;;;;4216767;27;19963;-62
2023/10/12 05:38:35;;;;;;;;;;;18.40;94.90;;;;;;4216348;27;19953;-62
2023/10/12 05:41:33;;;;;;;;;;;18.40;94.90;;;;;;4209500;27;19931;-62
2023/10/12 05:44:15;;;;;;;;;;;18.40;94.80;;;;;;4217599;27;19935;-62
2023/10/12 05:47:00;;;;;;;;;;;18.40;95.20;;;;;;4200985;28;19986;-62
2023/10/12 05:49:42;;;;;;;;;;;18.40;94.80;;;;;;4232985;27;20425;-61
2023/10/12 05:52:23;;;;;;;;;;;18.40;94.80;;;;;;4233605;27;19977;-61
2023/10/12 05:55:18;;;;;;;;;;;18.40;94.80;;;;;;4223947;27;19935;-62
2023/10/12 05:58:09;;;;;;;;;;;18.40;94.80;;;;;;4220488;27;20263;-62
2023/10/12 06:00:52;;;;;;;;;;;18.40;94.80;;;;;;4206085;27;19931;-63
2023/10/12 06:03:33;;;;;;;;;;;18.30;94.80;;;;;;4205462;28;19935;-62
2023/10/12 06:06:16;;;;;;;;;;;18.30;94.70;;;;;;4206370;28;20049;-61
2023/10/12 06:08:56;;;;;;;;;;;18.30;94.70;;;;;;4205545;28;19931;-62
2023/10/12 06:11:40;;;;;;;;;;;18.30;94.70;;;;;;4205768;27;19935;-62
2023/10/12 06:14:21;;;;;;;;;;;18.30;95.10;;;;;;4203706;28;20065;-60
2023/10/12 06:17:03;;;;;;;;;;;18.30;94.70;;;;;;4210813;27;20393;-62
2023/10/12 06:19:44;;;;;;;;;;;18.30;94.70;;;;;;4223131;27;20401;-61
2023/10/12 06:22:32;;;;;;;;;;;18.30;94.70;;;;;;4220485;27;20100;-61
2023/10/12 06:25:18;;;;;;;;;;;18.30;94.70;;;;;;4193127;28;19935;-61
2023/10/12 06:28:05;;;;;;;;;;;18.30;94.60;;;;;;4206511;27;20322;-59
2023/10/12 06:30:47;;;;;;;;;;;18.30;94.70;;;;;;4205909;27;20482;-57
2023/10/12 06:33:30;;;;;;;;;;;18.30;94.80;;;;;;4205674;28;19935;-57
2023/10/12 06:36:16;;;;;;;;;;;18.30;95.20;;;;;;4206258;27;20089;-57
2023/10/12 06:40:07;;;;;;;;;;;18.30;94.80;;;;;;4189285;28;19931;-57
2023/10/12 06:42:25;;;;;;;;;;;18.30;94.70;;;;;;4188103;28;20299;-57
2023/10/12 06:45:09;;;;;;;;;;;18.30;94.60;;;;;;4193799;27;20017;-59
2023/10/12 06:47:57;;;;;;;;;;;18.20;94.50;;;;;;4205803;28;19966;-59
2023/10/12 06:50:39;;;;;;;;;;;18.20;94.40;;;;;;4189008;28;19950;-59
2023/10/12 06:53:24;;;;;;;;;;;18.20;94.30;;;;;;4197795;27;19935;-59
2023/10/12 06:56:16;;;;;;;;;;;18.20;94.20;;;;;;4222474;27;19930;-59
2023/10/12 06:59:13;;;;;;;;;;;18.20;94.10;;;;;;4219755;27;19942;-49
2023/10/12 07:01:57;;;;;;;;;;;18.10;94.00;;;;;;4205509;28;19935;-59
2023/10/12 07:04:49;;;;;;;;;;;18.10;93.90;;;;;;4203758;27;19931;-59
2023/10/12 07:07:36;;;;;;;;;;;18.10;93.80;;;;;;4193714;28;20458;-59
2023/10/12 07:10:27;;;;;;;;;;;18.10;93.80;;;;;;4205812;28;20392;-59
2023/10/12 07:13:10;;;;;;;;;;;18.10;93.70;;;;;;4191758;27;19931;-59
2023/10/12 07:15:51;;;;;;;;;;;18.10;93.60;;;;;;4222070;27;19938;-60
2023/10/12 07:18:34;;;;;;;;;;;18.10;93.50;;;;;;4221798;27;20476;-59
2023/10/12 07:21:21;;;;;;;;;;;18.00;93.50;;;;;;4221063;27;19931;-59
2023/10/12 07:24:02;;;;;;;;;;;18.00;93.40;;;;;;4220112;27;20057;-59
2023/10/12 07:26:48;;;;;;;;;;;18.00;93.30;;;;;;4208955;27;20492;-59
2023/10/12 07:29:37;;;;;;;;;;;18.00;93.20;;;;;;4204030;28;20302;-59
2023/10/12 07:32:24;;;;;;;;;;;18.00;93.60;;;;;;4189478;28;20385;-59
2023/10/12 07:35:17;;;;;;;;;;;18.00;93.10;;;;;;4204337;28;19931;-57
2023/10/12 07:37:58;;;;;;;;;;;18.00;93.10;;;;;;4201803;27;19931;-59
2023/10/12 07:40:51;;;;;;;;;;;18.00;93.10;;;;;;4195828;27;19931;-59
2023/10/12 07:43:32;;;;;;;;;;;18.00;93.40;;;;;;4189389;28;20493;-58
2023/10/12 07:46:24;;;;;;;;;;;18.00;93.00;;;;;;4189450;28;19935;-59
2023/10/12 07:49:36;;;;;;;;;;;18.00;92.90;;;;;;4186850;28;19935;-61
2023/10/12 07:52:22;;;;;;;;;;;18.00;92.80;;;;;;4212586;28;20398;-63
2023/10/12 07:55:04;;;;;;;;;;;18.10;92.80;;;;;;4170640;28;20287;-61
2023/10/12 07:57:45;;;;;;;;;;;18.10;92.70;;;;;;4185953;28;19931;-60
2023/10/12 08:00:35;;;;;;;;;;;18.10;92.70;;;;;;4188485;28;20018;-59
2023/10/12 08:03:19;;;;;;;;;;;18.10;92.60;;;;;;4189280;28;20311;-59
2023/10/12 08:06:07;;;;;;;;;;;18.10;92.60;;;;;;4203154;27;19938;-60
2023/10/12 08:08:48;;;;;;;;;;;18.10;92.50;;;;;;4202631;28;19934;-61
2023/10/12 08:11:31;;;;;;;;;;;18.10;92.50;;;;;;4203745;28;19958;-59
2023/10/12 08:14:39;;;;;;;;;;;18.20;92.40;;;;;;4198008;28;19931;-60
2023/10/12 08:17:33;;;;;;;;;;;18.10;92.30;;;;;;4202509;28;20061;-59
2023/10/12 08:23:17;;;;;;;;;;;18.10;92.50;;;;;;4187195;28;19950;-59
2023/10/12 08:25:58;;;;;;;;;;;18.10;92.10;;;;;;4187568;28;19935;-59
2023/10/12 08:28:54;;;;;;;;;;;18.10;92.10;;;;;;4187901;28;20374;-60
2023/10/12 08:31:43;;;;;;;;;;;18.10;92.00;;;;;;4187053;28;19932;-59
2023/10/12 08:37:41;;;;;;;;;;;18.10;92.00;;;;;;4166051;28;19936;-48
2023/10/12 08:40:26;;;;;;;;;;;18.10;92.00;;;;;;4198900;27;19950;-49
2023/10/12 08:43:09;;;;;;;;;;;18.10;92.10;;;;;;4193875;28;19931;-49
2023/10/12 08:45:53;;;;;;;;;;;18.10;92.20;;;;;;4189834;28;20295;-48
2023/10/12 08:48:35;;;;;;;;;;;18.10;92.20;;;;;;4203452;28;20258;-48
2023/10/12 08:51:16;;;;;;;;;;;18.20;92.20;;;;;;4186444;28;20046;-47
2023/10/12 08:54:07;;;;;;;;;;;18.20;92.10;;;;;;4186922;28;20498;-47
2023/10/12 08:56:49;;;;;;;;;;;18.20;92.10;;;;;;4186430;28;19947;-46
2023/10/12 08:59:33;;;;;;;;;;;18.30;92.10;;;;;;4184389;28;19932;-46
2023/10/12 09:02:23;;;;;;;;;;;18.30;92.10;;;;;;4184177;28;20387;-50
2023/10/12 09:05:10;;;;;;;;;;;18.30;92.10;;;;;;4202119;28;19931;-45
2023/10/12 09:08:06;;;;;;;;;;;18.30;92.00;;;;;;4183692;28;19942;-51
2023/10/12 09:10:55;;;;;;;;;;;18.30;92.00;;;;;;4189521;28;19974;-45
2023/10/12 09:13:36;;;;;;;;;;;18.40;92.40;;;;;;4201725;28;19939;-46
2023/10/12 09:16:18;;;;;;;;;;;18.40;91.90;;;;;;4172947;28;19935;-46
2023/10/12 09:19:00;;;;;;;;;;;18.40;91.80;;;;;;4207669;27;20488;-51
2023/10/12 09:21:57;;;;;;;;;;;18.50;91.80;;;;;;4216194;27;19935;-48
2023/10/12 09:24:38;;;;;;;;;;;18.40;91.60;;;;;;4171299;28;20443;-55
2023/10/12 09:27:36;;;;;;;;;;;18.50;91.50;;;;;;4200917;27;19935;-49
2023/10/12 09:30:18;;;;;;;;;;;18.50;91.40;;;;;;4202814;27;19978;-48
2023/10/12 09:33:06;;;;;;;;;;;18.50;91.40;;;;;;4203835;28;20009;-50
2023/10/12 09:35:48;;;;;;;;;;;18.50;91.30;;;;;;4204523;28;19966;-49
2023/10/12 09:38:30;;;;;;;;;;;18.50;91.60;;;;;;4191806;28;19985;-51
2023/10/12 09:41:14;;;;;;;;;;;18.60;91.20;;;;;;4204668;27;19949;-55
2023/10/12 09:43:57;;;;;;;;;;;18.60;91.20;;;;;;4204472;28;19931;-58
2023/10/12 09:46:46;;;;;;;;;;;18.70;91.10;;;;;;4204354;27;19935;-58
2023/10/12 09:49:30;;;;;;;;;;;18.70;91.00;;;;;;4188729;28;22922;-59
2023/10/12 09:52:13;;;;;;;;;;;18.70;90.90;;;;;;4204816;27;19935;-60
2023/10/12 09:55:00;;;;;;;;;;;18.80;90.80;;;;;;4205439;27;19935;-55
2023/10/12 09:57:49;;;;;;;;;;;18.80;90.70;;;;;;4202176;28;20074;-60
2023/10/12 10:03:35;;;;;;;;;;;18.80;90.50;;;;;;4187699;28;19936;-61
2023/10/12 10:06:28;;;;;;;;;;;18.80;90.40;;;;;;4189334;28;19932;-58
2023/10/12 10:09:23;;;;;;;;;;;18.80;90.20;;;;;;4187108;28;19939;-59
2023/10/12 10:12:08;;;;;;;;;;;18.80;90.20;;;;;;4199176;28;19966;-60
2023/10/12 10:14:53;;;;;;;;;;;18.80;90.10;;;;;;4182730;28;20017;-60
2023/10/12 10:17:37;;;;;;;;;;;18.80;90.00;;;;;;4205176;28;19950;-59
2023/10/12 10:20:46;;;;;;;;;;;18.80;89.90;;;;;;4189268;28;20017;-59
2023/10/12 10:23:36;;;;;;;;;;;18.70;89.90;;;;;;4207958;27;20057;-48
2023/10/12 10:26:23;;;;;;;;;;;18.70;89.90;;;;;;4220397;27;19931;-51
2023/10/12 10:29:05;;;;;;;;;;;18.70;89.90;;;;;;4222737;27;20069;-48
2023/10/12 10:31:51;;;;;;;;;;;18.70;90.00;;;;;;4219929;27;19934;-49
2023/10/12 10:34:34;;;;;;;;;;;18.70;90.20;;;;;;4206909;27;20081;-48
2023/10/12 10:37:37;;;;;;;;;;;18.60;89.20;;;;;;4205558;27;20084;-50
2023/10/12 10:40:19;;;;;;;;;;;18.70;88.70;;;;;;4204672;27;20012;-50
2023/10/12 10:43:08;;;;;;;;;;;18.70;88.50;;;;;;4197930;28;19990;-48
2023/10/12 10:45:56;;;;;;;;;;;18.60;88.20;;;;;;4199771;28;19931;-48
2023/10/12 10:48:38;;;;;;;;;;;18.60;87.80;;;;;;4203022;28;19935;-52
2023/10/12 10:51:42;;;;;;;;;;;18.70;87.90;;;;;;4190871;28;20282;-51
2023/10/12 10:54:23;;;;;;;;;;;18.60;87.50;;;;;;4221975;27;20468;-61
2023/10/12 10:57:15;;;;;;;;;;;18.70;87.30;;;;;;4212758;27;20378;-60
2023/10/12 10:59:56;;;;;;;;;;;18.60;87.20;;;;;;4203097;27;19935;-59
2023/10/12 11:02:38;;;;;;;;;;;18.70;86.20;;;;;;4185655;28;20065;-51
2023/10/12 11:05:21;;;;;;;;;;;18.60;85.90;;;;;;4182720;28;19931;-51
2023/10/12 11:08:19;;;;;;;;;;;18.70;86.00;;;;;;4191159;27;20394;-49
2023/10/12 11:11:25;;;;;;;;;;;18.70;84.70;;;;;;4200035;28;19939;-49
2023/10/12 11:14:05;;;;;;;;;;;18.70;84.50;;;;;;4203404;27;20121;-48
2023/10/12 11:16:47;;;;;;;;;;;18.70;84.90;;;;;;4186763;28;19935;-49
2023/10/12 11:19:28;;;;;;;;;;;18.70;84.70;;;;;;4218018;27;20397;-51
2023/10/12 11:22:14;;;;;;;;;;;18.70;84.90;;;;;;4219256;27;19934;-51
2023/10/12 11:24:57;;;;;;;;;;;18.80;84.90;;;;;;4207305;27;19932;-56
2023/10/12 11:27:39;;;;;;;;;;;18.80;83.90;;;;;;4202503;27;19935;-54
2023/10/12 11:30:29;;;;;;;;;;;18.80;83.70;;;;;;4219427;27;20012;-56
2023/10/12 11:33:10;;;;;;;;;;;18.80;82.20;;;;;;4219502;27;19931;-52
2023/10/12 11:35:54;;;;;;;;;;;18.80;81.90;;;;;;4193862;28;19977;-54
2023/10/12 11:38:35;;;;;;;;;;;18.80;82.50;;;;;;4205499;27;19949;-53
2023/10/12 11:41:17;;;;;;;;;;;18.80;83.20;;;;;;4201503;28;19935;-48
2023/10/12 11:44:00;;;;;;;;;;;18.70;83.70;;;;;;4198614;28;19972;-48
2023/10/12 11:46:43;;;;;;;;;;;18.80;82.70;;;;;;4194388;28;19939;-47
2023/10/12 11:49:24;;;;;;;;;;;18.70;82.80;;;;;;4187188;28;19935;-48
2023/10/12 11:52:17;;;;;;;;;;;18.80;81.80;;;;;;4186862;28;19931;-47
2023/10/12 11:55:06;;;;;;;;;;;18.70;81.10;;;;;;4185850;28;20018;-50
2023/10/12 11:57:53;;;;;;;;;;;18.70;82.10;;;;;;4196404;27;19981;-47
2023/10/12 12:00:37;;;;;;;;;;;18.70;81.60;;;;;;4203843;27;19977;-51
2023/10/12 12:03:18;;;;;;;;;;;18.70;82.70;;;;;;4204460;28;20293;-47
2023/10/12 12:06:02;;;;;;;;;;;18.70;83.30;;;;;;4199946;28;19935;-50
2023/10/12 12:08:43;;;;;;;;;;;18.70;83.60;;;;;;4198898;28;20286;-50
2023/10/12 12:11:31;;;;;;;;;;;18.70;83.80;;;;;;4198974;28;19935;-51
2023/10/12 12:14:13;;;;;;;;;;;18.70;82.80;;;;;;4188867;28;19947;-51
2023/10/12 12:16:54;;;;;;;;;;;18.70;82.10;;;;;;4203483;28;19939;-49
2023/10/12 12:19:38;;;;;;;;;;;18.70;83.10;;;;;;4203909;28;19951;-49
2023/10/12 12:22:22;;;;;;;;;;;18.70;83.50;;;;;;4203019;28;19931;-48
2023/10/12 12:25:15;;;;;;;;;;;18.70;83.90;;;;;;4204530;28;20497;-50
2023/10/12 12:27:59;;;;;;;;;;;18.70;85.10;;;;;;4203496;28;20393;-49
2023/10/12 12:30:51;;;;;;;;;;;18.60;84.50;;;;;;4203667;27;19935;-48
2023/10/12 12:33:43;;;;;;;;;;;18.60;84.80;;;;;;4187106;28;19986;-47
2023/10/12 12:36:24;;;;;;;;;;;18.60;84.90;;;;;;4194732;28;19930;-48
2023/10/12 12:39:09;;;;;;;;;;;18.60;85.10;;;;;;4203876;28;19935;-50
2023/10/12 12:41:50;;;;;;;;;;;18.70;85.20;;;;;;4177985;28;19977;-47
2023/10/12 12:44:31;;;;;;;;;;;18.70;85.20;;;;;;4203621;28;19973;-46
2023/10/12 12:47:16;;;;;;;;;;;18.60;85.20;;;;;;4191254;28;20290;-50
2023/10/12 12:49:59;;;;;;;;;;;18.70;85.30;;;;;;4201524;28;19934;-48
2023/10/12 12:52:40;;;;;;;;;;;18.60;85.10;;;;;;4218894;27;20064;-48
2023/10/12 12:55:25;;;;;;;;;;;18.60;85.20;;;;;;4220419;27;19934;-49
2023/10/12 12:58:06;;;;;;;;;;;18.60;85.00;;;;;;4219832;27;19934;-48
2023/10/12 13:00:47;;;;;;;;;;;18.60;84.30;;;;;;4216845;27;19935;-47
2023/10/12 13:03:29;;;;;;;;;;;18.60;84.40;;;;;;4219950;27;19935;-47
2023/10/12 13:06:12;;;;;;;;;;;18.60;84.70;;;;;;4224072;27;20008;-48
2023/10/12 13:08:53;;;;;;;;;;;18.60;84.60;;;;;;4224143;27;20324;-47
2023/10/12 13:11:34;;;;;;;;;;;18.60;84.50;;;;;;4197127;28;19931;-48
2023/10/12 13:14:14;;;;;;;;;;;18.60;84.50;;;;;;4207073;28;19935;-47
2023/10/12 13:16:56;;;;;;;;;;;18.60;84.80;;;;;;4206971;28;20009;-49
2023/10/12 13:19:39;;;;;;;;;;;18.60;84.80;;;;;;4188403;28;19935;-48
2023/10/12 13:22:19;;;;;;;;;;;18.60;85.00;;;;;;4187561;28;19977;-50
2023/10/12 13:25:00;;;;;;;;;;;18.60;85.00;;;;;;4189100;28;20030;-47
2023/10/12 13:27:42;;;;;;;;;;;18.60;85.00;;;;;;4194242;27;19950;-45
2023/10/12 13:30:22;;;;;;;;;;;18.70;85.10;;;;;;4206756;27;19931;-47
2023/10/12 13:33:05;;;;;;;;;;;18.70;85.50;;;;;;4206910;27;19996;-50
2023/10/12 13:35:55;;;;;;;;;;;18.70;84.50;;;;;;4206938;27;20314;-52
2023/10/12 13:38:37;;;;;;;;;;;18.80;84.30;;;;;;4207063;27;19982;-50
2023/10/12 13:41:20;;;;;;;;;;;18.80;84.20;;;;;;4206123;27;20295;-48
2023/10/12 13:44:05;;;;;;;;;;;18.90;84.00;;;;;;4188530;28;19935;-51
2023/10/12 13:46:46;;;;;;;;;;;18.90;83.90;;;;;;4189093;28;19935;-48
2023/10/12 13:49:30;;;;;;;;;;;18.90;83.80;;;;;;4194917;28;19935;-49
2023/10/12 13:52:12;;;;;;;;;;;19.00;83.50;;;;;;4206191;28;19934;-47
2023/10/12 13:54:57;;;;;;;;;;;19.00;83.60;;;;;;4206810;28;20425;-46
2023/10/12 13:57:50;;;;;;;;;;;19.00;83.50;;;;;;4207523;27;19935;-46
2023/10/12 14:00:34;;;;;;;;;;;19.00;83.30;;;;;;4189133;28;19981;-46
2023/10/12 14:03:17;;;;;;;;;;;19.10;83.40;;;;;;4189154;28;19935;-51
2023/10/12 14:05:58;;;;;;;;;;;19.10;82.70;;;;;;4203564;27;19943;-48
2023/10/12 14:08:40;;;;;;;;;;;19.10;81.50;;;;;;4187905;28;19988;-46
2023/10/12 14:11:22;;;;;;;;;;;19.10;81.70;;;;;;4189235;28;19946;-48
2023/10/12 14:14:02;;;;;;;;;;;19.10;81.90;;;;;;4188671;28;19935;-49
2023/10/12 14:16:44;;;;;;;;;;;19.20;82.20;;;;;;4192108;27;19935;-48
2023/10/12 14:19:25;;;;;;;;;;;19.20;82.20;;;;;;4204731;27;19930;-47
2023/10/12 14:22:07;;;;;;;;;;;19.20;82.50;;;;;;4204929;28;19935;-51
2023/10/12 14:24:49;;;;;;;;;;;19.20;82.80;;;;;;4190616;27;19931;-54
2023/10/12 14:27:30;;;;;;;;;;;19.20;83.70;;;;;;4199048;28;19935;-49
2023/10/12 14:30:14;;;;;;;;;;;19.30;83.00;;;;;;4188398;28;19963;-48
2023/10/12 14:33:02;;;;;;;;;;;19.30;83.20;;;;;;4193822;28;20041;-47
2023/10/12 14:35:43;;;;;;;;;;;19.30;83.30;;;;;;4204871;28;19931;-50
2023/10/12 14:38:24;;;;;;;;;;;19.30;83.70;;;;;;4188828;28;19931;-47
2023/10/12 14:41:09;;;;;;;;;;;19.40;84.10;;;;;;4188424;28;19932;-48
2023/10/12 14:43:51;;;;;;;;;;;19.40;84.30;;;;;;4204256;28;20056;-46
2023/10/12 14:46:31;;;;;;;;;;;19.40;84.80;;;;;;4220551;27;20371;-45
2023/10/12 14:49:14;;;;;;;;;;;19.50;85.20;;;;;;4202328;28;20290;-47
2023/10/12 14:51:55;;;;;;;;;;;19.50;85.10;;;;;;4203371;27;19935;-46
2023/10/12 14:54:36;;;;;;;;;;;19.50;85.00;;;;;;4204360;27;19934;-51
2023/10/12 14:57:18;;;;;;;;;;;19.50;84.80;;;;;;4221638;27;19931;-49
2023/10/12 14:59:59;;;;;;;;;;;19.50;84.60;;;;;;4222080;27;20297;-48
2023/10/12 15:02:41;;;;;;;;;;;19.50;84.30;;;;;;4221879;27;19970;-48
2023/10/12 15:05:27;;;;;;;;;;;19.40;84.10;;;;;;4206408;27;19951;-49
2023/10/12 15:08:08;;;;;;;;;;;19.30;84.00;;;;;;4205293;27;19930;-47
2023/10/12 15:10:49;;;;;;;;;;;19.30;84.20;;;;;;4207034;27;19935;-48
2023/10/12 15:13:31;;;;;;;;;;;19.30;84.30;;;;;;4170604;28;20082;-48
2023/10/12 15:16:12;;;;;;;;;;;19.20;84.50;;;;;;4191619;28;20528;-49
2023/10/12 15:18:54;;;;;;;;;;;19.20;84.70;;;;;;4191877;28;20597;-50
2023/10/12 15:21:34;;;;;;;;;;;19.10;84.80;;;;;;4204026;28;20028;-49
2023/10/12 15:24:17;;;;;;;;;;;19.10;84.90;;;;;;4203436;28;19972;-48
2023/10/12 15:26:59;;;;;;;;;;;19.10;85.10;;;;;;4202052;28;19935;-48
2023/10/12 15:29:41;;;;;;;;;;;19.00;85.00;;;;;;4191936;28;20378;-48
2023/10/12 15:32:23;;;;;;;;;;;19.00;85.30;;;;;;4202297;27;20661;-52
2023/10/12 15:35:06;;;;;;;;;;;19.00;85.50;;;;;;4187513;28;19935;-49
2023/10/12 15:37:52;;;;;;;;;;;19.00;85.60;;;;;;4186622;28;19931;-50
2023/10/12 15:40:36;;;;;;;;;;;18.90;85.80;;;;;;4187586;28;19972;-50
2023/10/12 15:43:17;;;;;;;;;;;18.90;86.00;;;;;;4191882;28;19973;-49
2023/10/12 15:46:07;;;;;;;;;;;18.90;86.20;;;;;;4203033;28;19935;-52
2023/10/12 15:48:48;;;;;;;;;;;18.90;86.40;;;;;;4204063;27;19931;-50
2023/10/12 15:51:29;;;;;;;;;;;18.90;86.50;;;;;;4203696;27;20013;-48
2023/10/12 15:54:12;;;;;;;;;;;18.80;86.70;;;;;;4204108;28;19938;-48
2023/10/12 15:56:55;;;;;;;;;;;18.80;86.80;;;;;;4204429;28;19988;-48
2023/10/12 15:59:40;;;;;;;;;;;18.80;87.10;;;;;;4203037;28;19930;-53
2023/10/12 16:02:22;;;;;;;;;;;18.80;87.30;;;;;;4203223;28;20061;-52
2023/10/12 16:05:05;;;;;;;;;;;18.80;87.50;;;;;;4186520;28;19931;-50
2023/10/12 16:07:47;;;;;;;;;;;18.80;87.70;;;;;;4186696;28;20487;-52
2023/10/12 16:10:27;;;;;;;;;;;18.80;87.90;;;;;;4183873;28;20456;-49
2023/10/12 16:13:09;;;;;;;;;;;18.80;88.10;;;;;;4207709;28;19953;-50
2023/10/12 16:15:54;;;;;;;;;;;18.80;88.30;;;;;;4218657;27;20051;-51
2023/10/12 16:18:37;;;;;;;;;;;18.80;88.40;;;;;;4219690;27;19934;-48
2023/10/12 16:21:18;;;;;;;;;;;18.70;88.40;;;;;;4220726;27;19930;-52